Flight Track Log - Related Links

Times and Time Zones

All times are in EDT time to prevent confusion due to time zone crossing. See the ELO3908 flight status page for this flight to view local times or setup timezone preferences in your user account.

Time Position Orientation Groundspeed Altitude Reporting Facility
EDT Latitude Longitude Course Direction KTS MPH feet Rate Location/Type
Fri 10:29:00 AM 50.5999 20.0700 19° North  Level Estimated
Fri 10:30:00 AM 50.6632 20.1050 19° North  Level Estimated
Fri 10:31:00 AM 50.7264 20.1401 19° North  Level Estimated
Fri 10:32:00 AM 50.7896 20.1753 19° North  Level Estimated
Fri 10:33:00 AM 50.8529 20.2106 19° North  Level Estimated
Fri 10:34:00 AM 50.9161 20.2460 19° North  Level Estimated
Fri 10:35:00 AM 50.9793 20.2814 19° North  Level Estimated
Fri 10:36:00 AM 51.0425 20.3170 19° North  Level Estimated
Fri 10:37:00 AM 51.1056 20.3527 20° North  Level Estimated
Fri 10:38:00 AM 51.1688 20.3884 20° North  Level Estimated
Fri 10:39:00 AM 51.2319 20.4243 20° North  Level Estimated
Fri 10:40:00 AM 51.2951 20.4602 20° North  Level Estimated
Fri 10:41:00 AM 51.3582 20.4963 20° North  Level Estimated
Fri 10:42:00 AM 51.4213 20.5325 20° North  Level Estimated
Fri 10:43:00 AM 51.4844 20.5687 20° North  Level Estimated
Fri 10:44:00 AM 51.5475 20.6051 20° North  Level Estimated
Fri 10:45:00 AM 51.6106 20.6415 20° North  Level Estimated
Fri 10:46:00 AM 51.6737 20.6781 20° North  Level Estimated
Fri 10:47:00 AM 51.7368 20.7148 20° North  Level Estimated
Fri 10:48:00 AM 51.7998 20.7515 20° North  Level Estimated
Fri 10:49:00 AM 51.8629 20.7884 20° North  Level Estimated
Fri 10:50:00 AM 51.9259 20.8254 20° North  Level Estimated
Fri 10:51:00 AM 51.9889 20.8625 20° North  Level Estimated
Fri 10:52:00 AM 52.0519 20.8997 20° North  Level Estimated
Fri 10:53:00 AM 52.1149 20.9369 20° North  Level Estimated
Fri 10:54:00 AM 52.1657 20.9671 20° North  Level Estimated
Fri 10:55:00 AM 52.1657 20.9671 90° East  Level Estimated
Fri 10:56:00 AM 52.1657 20.9671 90° East  Level Estimated
Fri 10:57:00 AM 52.1657 20.9671 90° East  Level Estimated
Fri 10:58:00 AM 52.1657 20.9671 90° East  Level Estimated
Fri 10:59:00 AM 52.1657 20.9671 90° East  Level Estimated
Fri 11:00:00 AM 52.1657 20.9671 90° East  Level Estimated
Fri 11:01:00 AM 52.1657 20.9671 90° East  Level Estimated
Fri 11:02:00 AM 52.1657 20.9671 90° East  Level Estimated
Fri 11:03:00 AM 52.1657 20.9671 90° East  Level Estimated
Fri 11:04:00 AM 52.1657 20.9671 90° East  Level Estimated
Fri 11:05:00 AM 52.1657 20.9671 90° East  Level Estimated
Fri 11:06:00 AM 52.1657 20.9671 90° East  Level Estimated
Fri 11:07:00 AM 52.1657 20.9671 90° East  Level Estimated

Login

Don't have an account? Register now (free) for customized features, flight alerts, and more!